sensor_id;sensor_type;location;lat;lon;timestamp;pressure;altitude;pressure_sealevel;temperature;humidity
74678;BME280;63207;56.328;43.994;2022-09-30T00:01:49;100899.75;;;22.68;56.76
74678;BME280;63207;56.328;43.994;2022-09-30T00:04:21;100899.75;;;22.68;56.75
74678;BME280;63207;56.328;43.994;2022-09-30T00:06:47;100911.28;;;22.67;56.69
74678;BME280;63207;56.328;43.994;2022-09-30T00:09:14;100906.69;;;22.69;56.73
74678;BME280;63207;56.328;43.994;2022-09-30T00:11:41;100908.50;;;22.69;56.72
74678;BME280;63207;56.328;43.994;2022-09-30T00:14:13;100914.72;;;22.68;56.81
74678;BME280;63207;56.328;43.994;2022-09-30T00:16:40;100916.53;;;22.67;56.66
74678;BME280;63207;56.328;43.994;2022-09-30T00:19:06;100920.00;;;22.68;56.69
74678;BME280;63207;56.328;43.994;2022-09-30T00:21:32;100913.91;;;22.67;56.69
74678;BME280;63207;56.328;43.994;2022-09-30T00:23:59;100913.91;;;22.67;56.61
74678;BME280;63207;56.328;43.994;2022-09-30T00:26:25;100913.09;;;22.67;56.67
74678;BME280;63207;56.328;43.994;2022-09-30T00:28:56;100910.59;;;22.65;56.71
74678;BME280;63207;56.328;43.994;2022-09-30T00:31:24;100913.09;;;22.67;56.68
74678;BME280;63207;56.328;43.994;2022-09-30T00:33:51;100921.00;;;22.67;56.73
74678;BME280;63207;56.328;43.994;2022-09-30T00:36:48;100921.13;;;22.65;56.64
74678;BME280;63207;56.328;43.994;2022-09-30T00:39:17;100925.44;;;22.66;56.59
74678;BME280;63207;56.328;43.994;2022-09-30T00:41:45;100930.88;;;22.65;56.66
74678;BME280;63207;56.328;43.994;2022-09-30T00:49:54;100934.31;;;22.65;56.63
74678;BME280;63207;56.328;43.994;2022-09-30T00:52:22;100943.22;;;22.64;56.64
74678;BME280;63207;56.328;43.994;2022-09-30T00:54:48;100933.66;;;22.63;56.64
74678;BME280;63207;56.328;43.994;2022-09-30T00:57:16;100939.78;;;22.64;56.55
74678;BME280;63207;56.328;43.994;2022-09-30T01:00:00;100939.91;;;22.62;56.65
74678;BME280;63207;56.328;43.994;2022-09-30T01:02:26;100948.66;;;22.63;56.72
74678;BME280;63207;56.328;43.994;2022-09-30T01:04:52;100935.63;;;22.61;56.80
74678;BME280;63207;56.328;43.994;2022-09-30T01:07:20;100945.19;;;22.62;56.72
74678;BME280;63207;56.328;43.994;2022-09-30T01:09:48;100941.72;;;22.62;56.70
74678;BME280;63207;56.328;43.994;2022-09-30T01:12:18;100956.56;;;22.63;56.70
74678;BME280;63207;56.328;43.994;2022-09-30T01:14:46;100953.91;;;22.63;56.71
74678;BME280;63207;56.328;43.994;2022-09-30T01:20:24;100957.53;;;22.62;56.67
74678;BME280;63207;56.328;43.994;2022-09-30T01:23:21;100951.44;;;22.61;56.62
74678;BME280;63207;56.328;43.994;2022-09-30T01:37:31;100964.63;;;22.61;56.68
74678;BME280;63207;56.328;43.994;2022-09-30T01:40:13;100962.00;;;22.61;56.66
74678;BME280;63207;56.328;43.994;2022-09-30T01:43:05;100966.41;;;22.61;56.73
74678;BME280;63207;56.328;43.994;2022-09-30T01:48:40;100967.41;;;22.60;56.67
74678;BME280;63207;56.328;43.994;2022-09-30T01:51:16;100975.31;;;22.60;56.59
74678;BME280;63207;56.328;43.994;2022-09-30T01:53:55;100963.94;;;22.59;56.66
74678;BME280;63207;56.328;43.994;2022-09-30T01:59:01;100958.69;;;22.59;56.66
74678;BME280;63207;56.328;43.994;2022-09-30T02:01:58;100962.13;;;22.60;56.67
74678;BME280;63207;56.328;43.994;2022-09-30T02:04:35;100968.22;;;22.60;56.64
74678;BME280;63207;56.328;43.994;2022-09-30T02:07:08;100970.03;;;22.60;56.64
74678;BME280;63207;56.328;43.994;2022-09-30T02:09:59;100976.31;;;22.58;56.61
74678;BME280;63207;56.328;43.994;2022-09-30T02:12:29;100976.16;;;22.60;56.64
74678;BME280;63207;56.328;43.994;2022-09-30T02:15:09;100973.69;;;22.58;56.66
74678;BME280;63207;56.328;43.994;2022-09-30T02:17:43;100974.50;;;22.59;56.66
74678;BME280;63207;56.328;43.994;2022-09-30T02:20:19;100968.53;;;22.57;56.64
74678;BME280;63207;56.328;43.994;2022-09-30T02:23:10;100968.41;;;22.58;56.60
74678;BME280;63207;56.328;43.994;2022-09-30T02:25:43;100983.38;;;22.58;56.65
74678;BME280;63207;56.328;43.994;2022-09-30T02:28:13;100987.69;;;22.59;56.68
74678;BME280;63207;56.328;43.994;2022-09-30T02:30:44;100996.56;;;22.58;56.65
74678;BME280;63207;56.328;43.994;2022-09-30T02:33:18;100992.94;;;22.59;56.65
74678;BME280;63207;56.328;43.994;2022-09-30T02:35:52;101000.88;;;22.59;56.65
74678;BME280;63207;56.328;43.994;2022-09-30T02:38:26;100997.41;;;22.58;56.63
74678;BME280;63207;56.328;43.994;2022-09-30T02:40:59;101001.81;;;22.58;56.58
74678;BME280;63207;56.328;43.994;2022-09-30T02:43:27;101001.00;;;22.57;56.61
74678;BME280;63207;56.328;43.994;2022-09-30T02:54:33;100999.19;;;22.58;56.57
74678;BME280;63207;56.328;43.994;2022-09-30T02:57:40;101005.47;;;22.57;56.57
74678;BME280;63207;56.328;43.994;2022-09-30T03:00:07;100993.09;;;22.57;56.58
74678;BME280;63207;56.328;43.994;2022-09-30T03:02:34;100993.25;;;22.56;56.63
74678;BME280;63207;56.328;43.994;2022-09-30T03:05:00;101003.63;;;22.57;56.63
74678;BME280;63207;56.328;43.994;2022-09-30T03:07:26;101005.47;;;22.57;56.60
74678;BME280;63207;56.328;43.994;2022-09-30T03:09:56;101001.00;;;22.57;56.63
74678;BME280;63207;56.328;43.994;2022-09-30T03:12:42;101002.69;;;22.58;56.66
74678;BME280;63207;56.328;43.994;2022-09-30T03:15:48;101001.19;;;22.56;56.60
74678;BME280;63207;56.328;43.994;2022-09-30T03:21:20;101001.19;;;22.56;56.42
74678;BME280;63207;56.328;43.994;2022-09-30T03:29:34;101001.19;;;22.56;56.61
74678;BME280;63207;56.328;43.994;2022-09-30T03:37:31;101007.41;;;22.55;56.53
74678;BME280;63207;56.328;43.994;2022-09-30T03:40:07;101008.41;;;22.54;56.57
74678;BME280;63207;56.328;43.994;2022-09-30T03:42:42;101015.31;;;22.55;56.64
74678;BME280;63207;56.328;43.994;2022-09-30T03:45:21;101012.69;;;22.55;56.57
74678;BME280;63207;56.328;43.994;2022-09-30T03:47:52;101017.13;;;22.54;56.56
74678;BME280;63207;56.328;43.994;2022-09-30T03:50:22;101013.66;;;22.54;56.53
74678;BME280;63207;56.328;43.994;2022-09-30T03:52:49;101022.41;;;22.54;56.67
74678;BME280;63207;56.328;43.994;2022-09-30T03:55:16;101014.50;;;22.54;56.55
74678;BME280;63207;56.328;43.994;2022-09-30T03:57:43;101024.06;;;22.55;56.58
74678;BME280;63207;56.328;43.994;2022-09-30T04:00:11;101028.50;;;22.55;56.58
74678;BME280;63207;56.328;43.994;2022-09-30T04:02:37;101024.06;;;22.55;56.49
74678;BME280;63207;56.328;43.994;2022-09-30T04:05:04;101022.25;;;22.56;56.53
74678;BME280;63207;56.328;43.994;2022-09-30T04:07:30;101020.44;;;22.56;56.61
74678;BME280;63207;56.328;43.994;2022-09-30T04:09:56;101013.50;;;22.55;56.54
74678;BME280;63207;56.328;43.994;2022-09-30T04:12:41;101014.50;;;22.54;56.62
74678;BME280;63207;56.328;43.994;2022-09-30T04:15:07;101015.31;;;22.55;56.58
74678;BME280;63207;56.328;43.994;2022-09-30T04:17:33;101009.34;;;22.53;56.66
74678;BME280;63207;56.328;43.994;2022-09-30T04:19:58;101020.75;;;22.53;56.56
74678;BME280;63207;56.328;43.994;2022-09-30T04:22:24;101021.59;;;22.54;56.59
74678;BME280;63207;56.328;43.994;2022-09-30T04:24:50;101022.53;;;22.53;56.53
74678;BME280;63207;56.328;43.994;2022-09-30T04:27:16;101033.94;;;22.53;56.61
74678;BME280;63207;56.328;43.994;2022-09-30T04:29:41;101033.94;;;22.53;56.50
74678;BME280;63207;56.328;43.994;2022-09-30T04:32:07;101040.03;;;22.54;56.52
74678;BME280;63207;56.328;43.994;2022-09-30T04:34:33;101036.41;;;22.55;56.54
74678;BME280;63207;56.328;43.994;2022-09-30T04:36:59;101028.66;;;22.53;56.50
74678;BME280;63207;56.328;43.994;2022-09-30T04:39:25;101028.66;;;22.53;56.48
74678;BME280;63207;56.328;43.994;2022-09-30T04:41:51;101033.09;;;22.53;56.51
74678;BME280;63207;56.328;43.994;2022-09-30T04:44:18;101025.88;;;22.55;56.51
74678;BME280;63207;56.328;43.994;2022-09-30T04:46:44;101035.59;;;22.54;56.61
74678;BME280;63207;56.328;43.994;2022-09-30T04:49:10;101029.50;;;22.54;56.53
74678;BME280;63207;56.328;43.994;2022-09-30T04:51:54;101027.81;;;22.53;56.46
74678;BME280;63207;56.328;43.994;2022-09-30T04:54:20;101033.09;;;22.53;56.45
74678;BME280;63207;56.328;43.994;2022-09-30T04:56:46;101046.28;;;22.53;56.47
74678;BME280;63207;56.328;43.994;2022-09-30T04:59:12;101056.00;;;22.52;56.51
74678;BME280;63207;56.328;43.994;2022-09-30T05:01:38;101069.19;;;22.52;56.48
74678;BME280;63207;56.328;43.994;2022-09-30T05:04:06;101070.00;;;22.53;56.52
74678;BME280;63207;56.328;43.994;2022-09-30T05:06:32;101084.03;;;22.53;56.51
74678;BME280;63207;56.328;43.994;2022-09-30T05:08:58;101090.13;;;22.54;56.50
74678;BME280;63207;56.328;43.994;2022-09-30T05:11:24;101085.81;;;22.53;56.46
74678;BME280;63207;56.328;43.994;2022-09-30T05:13:50;101097.22;;;22.53;56.51
74678;BME280;63207;56.328;43.994;2022-09-30T05:16:16;101101.63;;;22.53;56.54
74678;BME280;63207;56.328;43.994;2022-09-30T05:18:43;101094.59;;;22.53;56.46
74678;BME280;63207;56.328;43.994;2022-09-30T05:21:12;101092.75;;;22.54;56.47
74678;BME280;63207;56.328;43.994;2022-09-30T05:23:39;101103.31;;;22.54;56.18
74678;BME280;63207;56.328;43.994;2022-09-30T05:26:05;101094.59;;;22.53;56.47
74678;BME280;63207;56.328;43.994;2022-09-30T05:28:31;101099.00;;;22.53;56.47
74678;BME280;63207;56.328;43.994;2022-09-30T05:30:59;101092.91;;;22.52;56.46
74678;BME280;63207;56.328;43.994;2022-09-30T05:33:27;101095.53;;;22.52;56.43
74678;BME280;63207;56.328;43.994;2022-09-30T05:35:54;101095.53;;;22.52;56.42
74678;BME280;63207;56.328;43.994;2022-09-30T05:38:23;101099.00;;;22.53;56.48
74678;BME280;63207;56.328;43.994;2022-09-30T05:41:12;101106.09;;;22.52;56.48
74678;BME280;63207;56.328;43.994;2022-09-30T05:43:40;101107.91;;;22.52;56.55
74678;BME280;63207;56.328;43.994;2022-09-30T05:46:06;101111.34;;;22.52;56.37
74678;BME280;63207;56.328;43.994;2022-09-30T05:48:32;101109.72;;;22.51;56.42
74678;BME280;63207;56.328;43.994;2022-09-30T05:50:59;101110.41;;;22.53;56.42
74678;BME280;63207;56.328;43.994;2022-09-30T05:53:27;101116.63;;;22.52;56.47
74678;BME280;63207;56.328;43.994;2022-09-30T05:55:53;101127.19;;;22.52;56.42
74678;BME280;63207;56.328;43.994;2022-09-30T05:58:19;101119.44;;;22.51;56.47
74678;BME280;63207;56.328;43.994;2022-09-30T06:00:47;101122.72;;;22.53;56.44
74678;BME280;63207;56.328;43.994;2022-09-30T06:03:14;101123.72;;;22.52;56.48
74678;BME280;63207;56.328;43.994;2022-09-30T06:05:40;101128.16;;;22.51;56.56
74678;BME280;63207;56.328;43.994;2022-09-30T06:08:06;101130.81;;;22.51;56.49
74678;BME280;63207;56.328;43.994;2022-09-30T06:10:32;101124.53;;;22.52;56.35
74678;BME280;63207;56.328;43.994;2022-09-30T06:13:01;101122.72;;;22.53;56.43
74678;BME280;63207;56.328;43.994;2022-09-30T06:15:27;101122.72;;;22.53;56.40
74678;BME280;63207;56.328;43.994;2022-09-30T06:17:53;101125.38;;;22.53;56.42
74678;BME280;63207;56.328;43.994;2022-09-30T06:20:19;101123.59;;;22.53;56.34
74678;BME280;63207;56.328;43.994;2022-09-30T06:22:45;101121.91;;;22.52;56.38
74678;BME280;63207;56.328;43.994;2022-09-30T06:25:11;101121.91;;;22.52;56.43
74678;BME280;63207;56.328;43.994;2022-09-30T06:27:37;101138.53;;;22.53;56.45
74678;BME280;63207;56.328;43.994;2022-09-30T06:30:04;101135.91;;;22.53;56.48
74678;BME280;63207;56.328;43.994;2022-09-30T06:32:31;101128.00;;;22.53;56.48
74678;BME280;63207;56.328;43.994;2022-09-30T06:34:56;101129.00;;;22.52;56.42
74678;BME280;63207;56.328;43.994;2022-09-30T06:37:23;101127.19;;;22.52;56.39
74678;BME280;63207;56.328;43.994;2022-09-30T06:39:49;101122.72;;;22.53;56.50
74678;BME280;63207;56.328;43.994;2022-09-30T06:42:18;101127.19;;;22.52;56.42
74678;BME280;63207;56.328;43.994;2022-09-30T06:44:44;101121.09;;;22.52;56.44
74678;BME280;63207;56.328;43.994;2022-09-30T06:47:12;101125.38;;;22.53;56.36
74678;BME280;63207;56.328;43.994;2022-09-30T06:49:39;101125.38;;;22.53;56.40
74678;BME280;63207;56.328;43.994;2022-09-30T06:52:05;101140.22;;;22.54;56.25
74678;BME280;63207;56.328;43.994;2022-09-30T06:54:31;101138.53;;;22.53;56.46
74678;BME280;63207;56.328;43.994;2022-09-30T06:56:57;101136.91;;;22.52;56.24
74678;BME280;63207;56.328;43.994;2022-09-30T06:59:23;101144.66;;;22.53;56.37
74678;BME280;63207;56.328;43.994;2022-09-30T07:01:49;101147.31;;;22.53;56.43
74678;BME280;63207;56.328;43.994;2022-09-30T07:04:15;101143.69;;;22.54;56.43
74678;BME280;63207;56.328;43.994;2022-09-30T07:06:41;101135.09;;;22.52;56.39
74678;BME280;63207;56.328;43.994;2022-09-30T07:09:08;101139.41;;;22.53;56.35
74678;BME280;63207;56.328;43.994;2022-09-30T07:11:35;101135.91;;;22.53;56.35
74678;BME280;63207;56.328;43.994;2022-09-30T07:14:05;101140.34;;;22.52;56.34
74678;BME280;63207;56.328;43.994;2022-09-30T07:16:31;101147.31;;;22.53;56.36
74678;BME280;63207;56.328;43.994;2022-09-30T07:18:59;101147.31;;;22.53;56.36
74678;BME280;63207;56.328;43.994;2022-09-30T07:21:26;101133.28;;;22.53;56.34
74678;BME280;63207;56.328;43.994;2022-09-30T07:23:52;101138.53;;;22.53;56.40
74678;BME280;63207;56.328;43.994;2022-09-30T07:26:21;101133.28;;;22.53;56.33
74678;BME280;63207;56.328;43.994;2022-09-30T07:28:48;101134.94;;;22.54;56.39
74678;BME280;63207;56.328;43.994;2022-09-30T07:31:17;101125.38;;;22.53;56.39
74678;BME280;63207;56.328;43.994;2022-09-30T07:33:44;101126.22;;;22.53;56.25
74678;BME280;63207;56.328;43.994;2022-09-30T07:36:29;101120.09;;;22.53;56.45
74678;BME280;63207;56.328;43.994;2022-09-30T07:38:56;101131.50;;;22.53;56.35
74678;BME280;63207;56.328;43.994;2022-09-30T07:41:24;101135.91;;;22.53;56.30
74678;BME280;63207;56.328;43.994;2022-09-30T07:43:53;101129.00;;;22.52;56.39
74678;BME280;63207;56.328;43.994;2022-09-30T07:46:26;101136.91;;;22.52;56.35
74678;BME280;63207;56.328;43.994;2022-09-30T07:48:54;101133.28;;;22.53;56.43
74678;BME280;63207;56.328;43.994;2022-09-30T07:51:41;101135.91;;;22.53;56.31
74678;BME280;63207;56.328;43.994;2022-09-30T07:54:16;101135.91;;;22.53;56.42
74678;BME280;63207;56.328;43.994;2022-09-30T07:56:43;101137.72;;;22.52;56.40
74678;BME280;63207;56.328;43.994;2022-09-30T07:59:10;101133.28;;;22.53;56.38
74678;BME280;63207;56.328;43.994;2022-09-30T08:01:36;101135.09;;;22.52;56.37
74678;BME280;63207;56.328;43.994;2022-09-30T08:04:04;101131.63;;;22.52;56.34
74678;BME280;63207;56.328;43.994;2022-09-30T08:06:31;101126.22;;;22.53;56.32
74678;BME280;63207;56.328;43.994;2022-09-30T08:09:20;101130.63;;;22.53;56.36
74678;BME280;63207;56.328;43.994;2022-09-30T08:11:46;101136.75;;;22.53;56.32
74678;BME280;63207;56.328;43.994;2022-09-30T08:14:16;101139.53;;;22.52;56.42
74678;BME280;63207;56.328;43.994;2022-09-30T08:16:42;101132.44;;;22.52;56.31
74678;BME280;63207;56.328;43.994;2022-09-30T08:19:28;101127.19;;;22.52;56.31
74678;BME280;63207;56.328;43.994;2022-09-30T08:21:54;101130.63;;;22.53;56.33
74678;BME280;63207;56.328;43.994;2022-09-30T08:24:21;101128.00;;;22.53;56.37
74678;BME280;63207;56.328;43.994;2022-09-30T08:26:50;101131.63;;;22.52;56.35
74678;BME280;63207;56.328;43.994;2022-09-30T08:29:19;101137.72;;;22.52;56.36
74678;BME280;63207;56.328;43.994;2022-09-30T08:31:45;101142.03;;;22.53;56.19
74678;BME280;63207;56.328;43.994;2022-09-30T08:34:13;101130.63;;;22.53;56.42
74678;BME280;63207;56.328;43.994;2022-09-30T08:36:42;101139.41;;;22.53;56.26
74678;BME280;63207;56.328;43.994;2022-09-30T08:39:13;101128.00;;;22.53;56.35
74678;BME280;63207;56.328;43.994;2022-09-30T08:42:06;101121.91;;;22.52;56.29
74678;BME280;63207;56.328;43.994;2022-09-30T08:50:07;101138.53;;;22.53;56.35
74678;BME280;63207;56.328;43.994;2022-09-30T08:52:57;101126.34;;;22.52;56.39
74678;BME280;63207;56.328;43.994;2022-09-30T08:55:27;101138.53;;;22.53;56.30
74678;BME280;63207;56.328;43.994;2022-09-30T08:57:55;101140.34;;;22.52;56.29
74678;BME280;63207;56.328;43.994;2022-09-30T09:00:22;101140.34;;;22.52;56.31
74678;BME280;63207;56.328;43.994;2022-09-30T09:02:57;101141.19;;;22.53;56.39
74678;BME280;63207;56.328;43.994;2022-09-30T09:08:37;101149.94;;;22.53;56.34
74678;BME280;63207;56.328;43.994;2022-09-30T09:19:08;101148.28;;;22.52;56.29
74678;BME280;63207;56.328;43.994;2022-09-30T09:21:58;101141.34;;;22.51;56.25
74678;BME280;63207;56.328;43.994;2022-09-30T09:24:29;101142.16;;;22.52;56.31
74678;BME280;63207;56.328;43.994;2022-09-30T09:26:58;101133.28;;;22.53;56.33
74678;BME280;63207;56.328;43.994;2022-09-30T09:32:00;101135.09;;;22.52;56.30
74678;BME280;63207;56.328;43.994;2022-09-30T09:34:54;101139.53;;;22.52;56.31
74678;BME280;63207;56.328;43.994;2022-09-30T09:40:41;101155.34;;;22.52;56.25
74678;BME280;63207;56.328;43.994;2022-09-30T09:46:26;101149.25;;;22.51;56.28
74678;BME280;63207;56.328;43.994;2022-09-30T09:51:50;101145.78;;;22.51;56.35
74678;BME280;63207;56.328;43.994;2022-09-30T09:54:24;101150.09;;;22.52;56.31
74678;BME280;63207;56.328;43.994;2022-09-30T09:56:52;101147.44;;;22.52;56.33
74678;BME280;63207;56.328;43.994;2022-09-30T09:59:19;101141.34;;;22.51;56.32
74678;BME280;63207;56.328;43.994;2022-09-30T10:01:47;101147.44;;;22.52;56.26
74678;BME280;63207;56.328;43.994;2022-09-30T10:04:18;101141.34;;;22.51;56.25
74678;BME280;63207;56.328;43.994;2022-09-30T10:09:41;101137.72;;;22.52;56.34
74678;BME280;63207;56.328;43.994;2022-09-30T10:12:27;101142.16;;;22.52;56.29
74678;BME280;63207;56.328;43.994;2022-09-30T10:14:57;101140.34;;;22.52;56.11
74678;BME280;63207;56.328;43.994;2022-09-30T10:17:26;101150.09;;;22.52;56.09
74678;BME280;63207;56.328;43.994;2022-09-30T10:19:59;101157.00;;;22.53;56.33
74678;BME280;63207;56.328;43.994;2022-09-30T10:22:30;101156.19;;;22.52;56.34
74678;BME280;63207;56.328;43.994;2022-09-30T10:25:19;101158.81;;;22.52;56.28
74678;BME280;63207;56.328;43.994;2022-09-30T10:28:19;101148.28;;;22.52;56.29
74678;BME280;63207;56.328;43.994;2022-09-30T10:31:02;101157.00;;;22.53;56.16
74678;BME280;63207;56.328;43.994;2022-09-30T10:36:03;101157.84;;;22.53;56.25
74678;BME280;63207;56.328;43.994;2022-09-30T10:38:30;101151.72;;;22.53;56.24
74678;BME280;63207;56.328;43.994;2022-09-30T10:40:59;101151.72;;;22.53;56.29
74678;BME280;63207;56.328;43.994;2022-09-30T10:43:30;101153.41;;;22.54;56.16
74678;BME280;63207;56.328;43.994;2022-09-30T10:45:57;101150.91;;;22.52;56.26
74678;BME280;63207;56.328;43.994;2022-09-30T10:48:30;101152.59;;;22.53;56.24
74678;BME280;63207;56.328;43.994;2022-09-30T10:50:57;101149.94;;;22.53;56.23
74678;BME280;63207;56.328;43.994;2022-09-30T10:53:25;101150.78;;;22.54;56.35
74678;BME280;63207;56.328;43.994;2022-09-30T10:55:52;101155.06;;;22.55;56.43
74678;BME280;63207;56.328;43.994;2022-09-30T10:58:19;101150.47;;;22.57;56.51
74678;BME280;63207;56.328;43.994;2022-09-30T11:00:49;101151.16;;;22.59;56.86
74678;BME280;63207;56.328;43.994;2022-09-30T11:03:24;101146.41;;;22.63;56.93
74678;BME280;63207;56.328;43.994;2022-09-30T11:05:52;101149.59;;;22.66;57.04
74678;BME280;63207;56.328;43.994;2022-09-30T11:10:58;101153.31;;;22.73;57.26
74678;BME280;63207;56.328;43.994;2022-09-30T11:16:12;101145.63;;;22.80;56.79
74678;BME280;63207;56.328;43.994;2022-09-30T11:18:46;101151.56;;;22.82;57.00
74678;BME280;63207;56.328;43.994;2022-09-30T11:24:01;101148.19;;;22.90;57.65
74678;BME280;63207;56.328;43.994;2022-09-30T11:30:00;101144.38;;;23.02;57.60
74678;BME280;63207;56.328;43.994;2022-09-30T11:32:12;101143.13;;;23.06;57.96
74678;BME280;63207;56.328;43.994;2022-09-30T11:34:59;101140.84;;;23.11;58.39
74678;BME280;63207;56.328;43.994;2022-09-30T11:48:47;101134.56;;;23.30;58.73
74678;BME280;63207;56.328;43.994;2022-09-30T11:51:31;101132.47;;;23.34;58.72
74678;BME280;63207;56.328;43.994;2022-09-30T11:54:06;101130.34;;;23.37;58.86
74678;BME280;63207;56.328;43.994;2022-09-30T11:57:02;101130.06;;;23.40;58.81
74678;BME280;63207;56.328;43.994;2022-09-30T11:59:32;101126.94;;;23.45;58.81
74678;BME280;63207;56.328;43.994;2022-09-30T12:02:00;101124.00;;;23.48;58.77
74678;BME280;63207;56.328;43.994;2022-09-30T12:04:40;101126.19;;;23.53;58.69
74678;BME280;63207;56.328;43.994;2022-09-30T12:07:22;101119.78;;;23.55;58.56
74678;BME280;63207;56.328;43.994;2022-09-30T12:09:55;101121.44;;;23.56;58.50
74678;BME280;63207;56.328;43.994;2022-09-30T12:12:22;101125.44;;;23.60;58.51
74678;BME280;63207;56.328;43.994;2022-09-30T12:15:05;101120.78;;;23.62;58.69
74678;BME280;63207;56.328;43.994;2022-09-30T12:22:52;101121.19;;;23.68;58.46
74678;BME280;63207;56.328;43.994;2022-09-30T12:25:30;101106.84;;;23.70;58.48
74678;BME280;63207;56.328;43.994;2022-09-30T12:28:04;101111.03;;;23.73;58.42
74678;BME280;63207;56.328;43.994;2022-09-30T12:30:59;101112.66;;;23.74;58.37
74678;BME280;63207;56.328;43.994;2022-09-30T12:43:08;101110.88;;;23.82;57.80
74678;BME280;63207;56.328;43.994;2022-09-30T12:47:52;101109.59;;;23.86;57.92
74678;BME280;63207;56.328;43.994;2022-09-30T12:50:26;101110.28;;;23.89;57.80
74678;BME280;63207;56.328;43.994;2022-09-30T12:55:52;101105.50;;;23.92;57.58
74678;BME280;63207;56.328;43.994;2022-09-30T13:12:16;101112.56;;;23.83;56.51
74678;BME280;63207;56.328;43.994;2022-09-30T13:20:52;101125.91;;;23.82;56.31
74678;BME280;63207;56.328;43.994;2022-09-30T13:23:48;101118.97;;;23.81;56.22
74678;BME280;63207;56.328;43.994;2022-09-30T13:26:40;101127.88;;;23.80;56.10
74678;BME280;63207;56.328;43.994;2022-09-30T13:34:12;101123.91;;;23.76;55.83
74678;BME280;63207;56.328;43.994;2022-09-30T13:39:20;101133.78;;;23.74;55.75
74678;BME280;63207;56.328;43.994;2022-09-30T13:44:49;101134.63;;;23.74;55.61
74678;BME280;63207;56.328;43.994;2022-09-30T13:53:06;101143.53;;;23.73;55.37
74678;BME280;63207;56.328;43.994;2022-09-30T13:55:47;101135.28;;;23.76;55.41
74678;BME280;63207;56.328;43.994;2022-09-30T14:04:03;101145.41;;;23.81;55.45
74678;BME280;63207;56.328;43.994;2022-09-30T14:07:22;101152.50;;;23.80;55.34
74678;BME280;63207;56.328;43.994;2022-09-30T14:12:22;101150.16;;;23.59;53.45
74678;BME280;63207;56.328;43.994;2022-09-30T14:23:38;101158.25;;;23.22;53.38
74678;BME280;63207;56.328;43.994;2022-09-30T14:26:18;101166.03;;;23.24;53.77
74678;BME280;63207;56.328;43.994;2022-09-30T14:31:27;101175.16;;;23.29;54.19
74678;BME280;63207;56.328;43.994;2022-09-30T14:33:54;101171.38;;;23.32;54.20
74678;BME280;63207;56.328;43.994;2022-09-30T14:36:21;101165.81;;;23.35;54.12
74678;BME280;63207;56.328;43.994;2022-09-30T14:38:57;101167.47;;;23.36;54.12
74678;BME280;63207;56.328;43.994;2022-09-30T14:41:26;101165.53;;;23.38;54.07
74678;BME280;63207;56.328;43.994;2022-09-30T14:43:56;101165.22;;;23.41;54.11
74678;BME280;63207;56.328;43.994;2022-09-30T14:46:32;101171.00;;;23.44;54.01
74678;BME280;63207;56.328;43.994;2022-09-30T14:49:20;101160.44;;;23.44;54.05
74678;BME280;63207;56.328;43.994;2022-09-30T14:51:53;101168.22;;;23.46;54.01
74678;BME280;63207;56.328;43.994;2022-09-30T14:54:20;101177.78;;;23.47;54.23
74678;BME280;63207;56.328;43.994;2022-09-30T14:56:47;101170.69;;;23.48;53.97
74678;BME280;63207;56.328;43.994;2022-09-30T14:59:19;101175.84;;;23.49;53.95
74678;BME280;63207;56.328;43.994;2022-09-30T15:01:49;101169.56;;;23.50;53.94
74678;BME280;63207;56.328;43.994;2022-09-30T15:04:18;101159.69;;;23.52;54.02
74678;BME280;63207;56.328;43.994;2022-09-30T15:06:49;101161.34;;;23.53;54.21
74678;BME280;63207;56.328;43.994;2022-09-30T15:09:22;101165.50;;;23.56;54.26
74678;BME280;63207;56.328;43.994;2022-09-30T15:11:49;101168.97;;;23.56;54.35
74678;BME280;63207;56.328;43.994;2022-09-30T15:14:16;101167.00;;;23.58;54.28
74678;BME280;63207;56.328;43.994;2022-09-30T15:16:54;101161.72;;;23.58;54.41
74678;BME280;63207;56.328;43.994;2022-09-30T15:21:50;101159.09;;;23.58;54.41
74678;BME280;63207;56.328;43.994;2022-09-30T15:24:18;101156.44;;;23.58;54.48
74678;BME280;63207;56.328;43.994;2022-09-30T15:26:45;101161.72;;;23.58;54.54
74678;BME280;63207;56.328;43.994;2022-09-30T15:29:14;101166.19;;;23.58;54.47
74678;BME280;63207;56.328;43.994;2022-09-30T15:32:13;101167.31;;;23.55;54.55
74678;BME280;63207;56.328;43.994;2022-09-30T15:34:42;101160.34;;;23.54;54.67
74678;BME280;63207;56.328;43.994;2022-09-30T15:37:19;101167.47;;;23.54;54.67
74678;BME280;63207;56.328;43.994;2022-09-30T15:40:13;101164.97;;;23.52;54.59
74678;BME280;63207;56.328;43.994;2022-09-30T15:43:01;101164.97;;;23.52;54.72
74678;BME280;63207;56.328;43.994;2022-09-30T15:45:37;101172.19;;;23.50;54.71
74678;BME280;63207;56.328;43.994;2022-09-30T15:50:53;101157.50;;;23.48;54.77
74678;BME280;63207;56.328;43.994;2022-09-30T15:55:57;101161.94;;;23.47;54.88
74678;BME280;63207;56.328;43.994;2022-09-30T15:58:39;101164.59;;;23.47;54.91
74678;BME280;63207;56.328;43.994;2022-09-30T16:01:22;101166.41;;;23.47;54.90
74678;BME280;63207;56.328;43.994;2022-09-30T16:03:57;101161.13;;;23.47;54.93
74678;BME280;63207;56.328;43.994;2022-09-30T16:14:25;101167.69;;;23.42;54.96
74678;BME280;63207;56.328;43.994;2022-09-30T16:19:21;101172.13;;;23.42;55.02
74678;BME280;63207;56.328;43.994;2022-09-30T16:21:50;101170.31;;;23.42;55.07
74678;BME280;63207;56.328;43.994;2022-09-30T16:26:59;101171.31;;;23.41;55.11